createdAt,value
2018-12-09T00:00:31.051Z,18.80
2018-12-09T00:02:59.541Z,20.10
2018-12-09T00:05:27.758Z,18.67
2018-12-09T00:07:55.974Z,18.30
2018-12-09T00:10:24.417Z,17.10
2018-12-09T00:12:52.625Z,17.20
2018-12-09T00:15:21.037Z,15.73
2018-12-09T00:17:49.221Z,14.83
2018-12-09T00:20:17.654Z,14.23
2018-12-09T00:22:46.035Z,13.83
2018-12-09T00:25:14.312Z,14.10
2018-12-09T00:27:42.639Z,13.77
2018-12-09T00:30:10.975Z,13.80
2018-12-09T00:32:39.402Z,13.70
2018-12-09T00:35:07.768Z,13.80
2018-12-09T00:37:36.084Z,14.00
2018-12-09T00:40:05.505Z,13.43
2018-12-09T00:42:33.878Z,14.70
2018-12-09T00:45:02.870Z,13.80
2018-12-09T00:47:31.083Z,13.90
2018-12-09T00:49:59.403Z,14.70
2018-12-09T00:52:27.622Z,15.50
2018-12-09T00:54:55.848Z,16.03
2018-12-09T00:57:24.086Z,15.90
2018-12-09T00:59:52.446Z,15.67
2018-12-09T01:02:20.749Z,15.80
2018-12-09T01:04:48.985Z,16.20
2018-12-09T01:07:17.401Z,16.13
2018-12-09T01:09:45.679Z,16.30
2018-12-09T01:12:14.078Z,17.07
2018-12-09T01:14:42.387Z,17.20
2018-12-09T01:17:10.615Z,16.10
2018-12-09T01:19:39.029Z,16.60
2018-12-09T01:22:07.233Z,17.20
2018-12-09T01:24:35.619Z,17.00
2018-12-09T01:27:03.951Z,17.70
2018-12-09T01:29:32.260Z,17.50
2018-12-09T01:32:01.070Z,17.43
2018-12-09T01:34:29.338Z,17.40
2018-12-09T01:36:57.701Z,18.00
2018-12-09T01:39:26.059Z,17.13
2018-12-09T01:41:54.358Z,17.93
2018-12-09T01:44:22.798Z,17.53
2018-12-09T01:46:51.200Z,17.50
2018-12-09T01:49:19.486Z,18.30
2018-12-09T01:51:47.871Z,18.57
2018-12-09T01:54:18.040Z,17.97
2018-12-09T01:56:46.377Z,18.80
2018-12-09T01:59:14.752Z,18.33
2018-12-09T02:01:43.342Z,18.30
2018-12-09T02:04:11.814Z,18.10
2018-12-09T02:06:40.083Z,18.00
2018-12-09T02:09:09.563Z,18.30
2018-12-09T02:11:37.929Z,18.33
2018-12-09T02:14:06.398Z,18.20
2018-12-09T02:16:35.002Z,18.17
2018-12-09T02:19:14.524Z,17.13
2018-12-09T02:21:43.511Z,17.70
2018-12-09T02:24:11.925Z,18.67
2018-12-09T02:26:40.193Z,18.73
2018-12-09T02:29:08.855Z,18.30
2018-12-09T02:31:37.165Z,18.60
2018-12-09T02:34:05.603Z,18.30
2018-12-09T02:36:34.580Z,17.77
2018-12-09T02:39:04.439Z,18.10
2018-12-09T02:41:33.011Z,18.20
2018-12-09T02:44:01.417Z,18.50
2018-12-09T02:46:29.702Z,17.70
2018-12-09T02:48:58.023Z,18.20
2018-12-09T02:51:26.445Z,18.70
2018-12-09T02:53:54.704Z,18.50
2018-12-09T02:56:23.081Z,18.00
2018-12-09T02:58:51.863Z,18.33
2018-12-09T03:01:20.163Z,18.40
2018-12-09T03:03:48.486Z,18.67
2018-12-09T03:06:17.117Z,18.33
2018-12-09T03:08:45.394Z,18.67
2018-12-09T03:11:13.847Z,18.57
2018-12-09T03:13:42.238Z,18.53
2018-12-09T03:16:10.525Z,18.43
2018-12-09T03:18:38.963Z,18.30
2018-12-09T03:21:07.671Z,18.03
2018-12-09T03:23:36.088Z,18.23
2018-12-09T03:26:04.366Z,18.30
2018-12-09T03:28:32.750Z,18.17
2018-12-09T03:31:01.051Z,18.00
2018-12-09T03:33:29.271Z,17.97
2018-12-09T03:35:57.838Z,18.30
2018-12-09T03:38:26.132Z,17.27
2018-12-09T03:40:54.535Z,17.57
2018-12-09T03:43:22.938Z,17.77
2018-12-09T03:45:51.236Z,17.70
2018-12-09T03:48:19.724Z,18.10
2018-12-09T03:50:48.061Z,18.60
2018-12-09T03:53:16.553Z,17.80
2018-12-09T03:55:45.224Z,17.30
2018-12-09T03:58:13.651Z,18.80
2018-12-09T04:00:41.894Z,18.60
2018-12-09T04:03:10.375Z,18.77
2018-12-09T04:05:38.810Z,18.40
2018-12-09T04:08:07.438Z,18.40
2018-12-09T04:10:35.865Z,18.60
2018-12-09T04:13:04.267Z,18.70
2018-12-09T04:15:36.940Z,17.67
2018-12-09T04:18:05.340Z,17.47
2018-12-09T04:20:33.812Z,17.17
2018-12-09T04:23:02.203Z,17.30
2018-12-09T04:25:30.476Z,17.10
2018-12-09T04:27:58.967Z,16.60
2018-12-09T04:30:27.447Z,16.50
2018-12-09T04:32:55.916Z,17.40
2018-12-09T04:35:24.199Z,16.90
2018-12-09T04:37:52.575Z,16.60
2018-12-09T04:40:20.810Z,16.57
2018-12-09T04:42:49.218Z,17.17
2018-12-09T04:45:18.382Z,17.57
2018-12-09T04:47:46.654Z,16.50
2018-12-09T04:50:15.067Z,16.40
2018-12-09T04:52:43.395Z,17.17
2018-12-09T04:55:11.776Z,16.60
2018-12-09T04:57:40.809Z,17.00
2018-12-09T05:01:24.182Z,17.10
2018-12-09T05:03:52.485Z,17.07
2018-12-09T05:06:20.935Z,16.50
2018-12-09T05:08:49.269Z,14.53
2018-12-09T05:11:17.745Z,15.23
2018-12-09T05:13:45.964Z,14.30
2018-12-09T05:16:14.261Z,14.43
2018-12-09T05:18:42.624Z,14.67
2018-12-09T05:21:10.877Z,14.67
2018-12-09T05:23:39.376Z,15.87
2018-12-09T05:26:07.592Z,15.70
2018-12-09T05:28:36.358Z,15.63
2018-12-09T05:31:04.658Z,16.40
2018-12-09T05:33:33.002Z,15.20
2018-12-09T05:36:01.334Z,16.33
2018-12-09T05:38:29.742Z,15.57
2018-12-09T05:40:58.642Z,15.27
2018-12-09T05:43:26.911Z,15.43
2018-12-09T05:45:55.420Z,14.60
2018-12-09T05:48:23.626Z,14.90
2018-12-09T05:50:51.989Z,14.97
2018-12-09T05:53:20.249Z,15.00
2018-12-09T05:55:48.582Z,14.50
2018-12-09T05:58:17.369Z,15.80
2018-12-09T06:00:45.739Z,14.43
2018-12-09T06:03:14.118Z,14.70
2018-12-09T06:05:42.494Z,13.90
2018-12-09T06:08:10.852Z,14.63
2018-12-09T06:10:39.116Z,14.37
2018-12-09T06:13:07.398Z,15.00
2018-12-09T06:15:35.712Z,14.10
2018-12-09T06:18:04.118Z,14.63
2018-12-09T06:20:32.782Z,14.50
2018-12-09T06:23:01.098Z,14.50
2018-12-09T06:25:29.582Z,13.90
2018-12-09T06:27:57.806Z,14.30
2018-12-09T06:30:26.130Z,14.30
2018-12-09T06:32:54.397Z,14.50
2018-12-09T06:35:22.742Z,13.97
2018-12-09T06:37:51.026Z,14.50
2018-12-09T06:40:19.846Z,13.50
2018-12-09T06:42:48.182Z,14.43
2018-12-09T06:45:16.481Z,13.60
2018-12-09T06:47:44.989Z,14.87
2018-12-09T06:50:13.352Z,13.80
2018-12-09T06:52:42.039Z,12.07
2018-12-09T06:55:10.425Z,12.30
2018-12-09T06:57:38.630Z,13.00
2018-12-09T07:00:08.728Z,13.13
2018-12-09T07:02:37.086Z,13.50
2018-12-09T07:05:06.924Z,13.60
2018-12-09T07:07:35.344Z,13.13
2018-12-09T07:10:03.974Z,14.60
2018-12-09T07:12:32.258Z,14.43
2018-12-09T07:15:00.642Z,14.97
2018-12-09T07:17:29.222Z,14.13
2018-12-09T07:19:57.662Z,15.70
2018-12-09T07:22:25.963Z,15.30
2018-12-09T07:24:54.537Z,15.07
2018-12-09T07:27:22.963Z,16.00
2018-12-09T07:29:51.538Z,15.80
2018-12-09T07:32:19.934Z,16.00
2018-12-09T07:34:48.198Z,16.00
2018-12-09T07:37:16.671Z,16.60
2018-12-09T07:39:45.093Z,15.50
2018-12-09T07:42:13.765Z,15.90
2018-12-09T07:44:41.981Z,16.20
2018-12-09T07:47:10.398Z,16.40
2018-12-09T07:49:38.615Z,16.57
2018-12-09T07:52:07.052Z,16.53
2018-12-09T07:54:35.460Z,16.87
2018-12-09T07:57:03.753Z,15.97
2018-12-09T07:59:31.990Z,15.53
2018-12-09T08:02:00.269Z,15.77
2018-12-09T08:04:28.684Z,16.83
2018-12-09T08:06:57.023Z,16.07
2018-12-09T08:09:25.367Z,17.40
2018-12-09T08:11:53.835Z,16.30
2018-12-09T08:14:22.419Z,16.60
2018-12-09T08:16:50.942Z,16.57
2018-12-09T08:19:19.330Z,16.17
2018-12-09T08:21:47.838Z,16.13
2018-12-09T08:24:16.218Z,16.00
2018-12-09T08:26:44.711Z,15.97
2018-12-09T08:29:13.012Z,16.87
2018-12-09T08:31:41.439Z,17.30
2018-12-09T08:34:09.759Z,17.50
2018-12-09T08:36:38.064Z,16.63
2018-12-09T08:39:06.683Z,17.40
2018-12-09T08:41:34.974Z,16.80
2018-12-09T08:44:03.300Z,17.87
2018-12-09T08:46:31.638Z,16.73
2018-12-09T08:48:59.847Z,17.30
2018-12-09T08:51:28.155Z,16.37
2018-12-09T08:53:56.421Z,17.30
2018-12-09T08:56:24.809Z,17.20
2018-12-09T08:58:53.038Z,17.33
2018-12-09T09:01:21.328Z,16.60
2018-12-09T09:03:49.706Z,17.03
2018-12-09T09:06:19.604Z,17.07
2018-12-09T09:08:48.304Z,18.10
2018-12-09T09:11:18.377Z,16.67
2018-12-09T09:13:47.625Z,16.77
2018-12-09T09:16:18.154Z,17.13
2018-12-09T09:18:46.974Z,16.60
2018-12-09T09:21:16.213Z,16.07
2018-12-09T09:23:48.161Z,16.30
2018-12-09T09:26:21.439Z,16.93
2018-12-09T09:28:49.727Z,16.77
2018-12-09T09:31:18.018Z,16.93
2018-12-09T09:33:46.255Z,16.70
2018-12-09T09:36:14.998Z,17.90
2018-12-09T09:38:43.346Z,16.90
2018-12-09T09:41:11.649Z,16.30
2018-12-09T09:43:39.957Z,16.50
2018-12-09T09:46:08.305Z,17.13
2018-12-09T09:48:36.609Z,17.10
2018-12-09T09:51:05.017Z,16.57
2018-12-09T09:53:33.297Z,16.70
2018-12-09T09:56:01.667Z,17.53
2018-12-09T09:58:29.980Z,18.77
2018-12-09T10:00:58.393Z,17.60
2018-12-09T10:03:26.626Z,17.57
2018-12-09T10:05:55.039Z,16.67
2018-12-09T10:08:23.443Z,16.90
2018-12-09T10:10:51.874Z,18.00
2018-12-09T10:13:20.142Z,17.30
2018-12-09T10:15:48.371Z,17.50
2018-12-09T10:18:16.792Z,17.63
2018-12-09T10:20:45.114Z,17.20
2018-12-09T10:23:13.442Z,17.10
2018-12-09T10:25:41.792Z,17.63
2018-12-09T10:28:10.148Z,17.57
2018-12-09T10:30:38.639Z,17.13
2018-12-09T10:33:06.857Z,17.70
2018-12-09T10:35:35.136Z,17.00
2018-12-09T10:38:03.402Z,17.57
2018-12-09T10:40:31.640Z,18.00
2018-12-09T10:43:00.078Z,17.13
2018-12-09T10:45:28.207Z,17.50
2018-12-09T10:47:56.596Z,18.00
2018-12-09T10:50:24.970Z,18.13
2018-12-09T10:52:53.563Z,18.50
2018-12-09T10:55:23.215Z,17.70
2018-12-09T10:57:51.533Z,18.30
2018-12-09T11:00:25.301Z,19.20
2018-12-09T11:02:53.568Z,18.83
2018-12-09T11:05:22.485Z,19.20
2018-12-09T11:07:50.956Z,17.40
2018-12-09T11:10:19.327Z,17.67
2018-12-09T11:12:47.647Z,18.60
2018-12-09T11:15:16.056Z,18.13
2018-12-09T11:17:44.294Z,18.30
2018-12-09T11:20:12.659Z,18.40
2018-12-09T11:22:42.922Z,18.50
2018-12-09T11:25:11.291Z,18.07
2018-12-09T11:27:39.562Z,18.30
2018-12-09T11:30:08.348Z,19.07
2018-12-09T11:32:36.543Z,18.63
2018-12-09T11:35:05.410Z,19.77
2018-12-09T11:37:34.235Z,18.70
2018-12-09T11:40:02.707Z,18.53
2018-12-09T11:42:31.164Z,19.90
2018-12-09T11:44:59.485Z,19.07
2018-12-09T11:47:27.750Z,19.10
2018-12-09T11:49:55.935Z,18.60
2018-12-09T11:52:24.318Z,18.57
2018-12-09T11:54:52.538Z,18.10
2018-12-09T11:57:21.063Z,17.77
2018-12-09T11:59:52.076Z,18.87
2018-12-09T12:02:20.372Z,18.90
2018-12-09T12:04:48.709Z,18.13
2018-12-09T12:07:17.037Z,17.53
2018-12-09T12:09:45.619Z,18.17
2018-12-09T12:12:13.943Z,18.47
2018-12-09T12:14:42.198Z,18.33
2018-12-09T12:17:10.564Z,17.50
2018-12-09T12:19:38.871Z,17.50
2018-12-09T12:22:08.317Z,17.63
2018-12-09T12:24:36.502Z,18.00
2018-12-09T12:27:04.939Z,17.63
2018-12-09T12:29:33.112Z,17.53
2018-12-09T12:32:01.416Z,16.73
2018-12-09T12:34:29.630Z,16.70
2018-12-09T12:36:57.809Z,16.70
2018-12-09T12:39:26.085Z,16.60
2018-12-09T12:41:54.302Z,17.10
2018-12-09T12:44:22.494Z,16.83
2018-12-09T12:46:50.778Z,16.43
2018-12-09T12:49:19.199Z,16.30
2018-12-09T12:51:47.456Z,16.50
2018-12-09T12:54:15.691Z,16.70
2018-12-09T12:56:44.048Z,16.13
2018-12-09T12:59:12.541Z,16.20
2018-12-09T13:01:40.880Z,16.00
2018-12-09T13:04:09.195Z,15.47
2018-12-09T13:06:37.490Z,15.30
2018-12-09T13:09:07.393Z,16.57
2018-12-09T13:11:35.605Z,16.30
2018-12-09T13:14:03.971Z,16.10
2018-12-09T13:16:32.159Z,17.37
2018-12-09T13:19:00.483Z,16.17
2018-12-09T13:21:28.747Z,16.67
2018-12-09T13:23:57.137Z,17.23
2018-12-09T13:26:25.510Z,16.90
2018-12-09T13:28:53.808Z,16.77
2018-12-09T13:31:22.181Z,16.30
2018-12-09T13:33:50.513Z,16.27
2018-12-09T13:36:19.163Z,16.10
2018-12-09T13:38:47.494Z,16.77
2018-12-09T13:41:15.916Z,17.07
2018-12-09T13:43:44.243Z,17.33
2018-12-09T13:46:12.608Z,16.50
2018-12-09T13:48:41.120Z,16.70
2018-12-09T13:51:09.318Z,17.10
2018-12-09T13:53:37.906Z,17.20
2018-12-09T13:56:06.291Z,17.90
2018-12-09T13:58:34.593Z,16.70
2018-12-09T14:01:03.122Z,16.30
2018-12-09T14:03:31.674Z,15.37
2018-12-09T14:06:00.162Z,15.50
2018-12-09T14:08:28.496Z,15.27
2018-12-09T14:10:57.016Z,14.10
2018-12-09T14:13:25.411Z,14.63
2018-12-09T14:15:53.743Z,13.90
2018-12-09T14:18:22.191Z,14.27
2018-12-09T14:20:50.567Z,13.40
2018-12-09T14:23:19.111Z,13.93
2018-12-09T14:25:47.442Z,15.47
2018-12-09T14:28:15.679Z,20.27
2018-12-09T14:30:44.041Z,14.23
2018-12-09T14:33:12.933Z,15.00
2018-12-09T14:35:41.334Z,13.60
2018-12-09T14:38:09.857Z,13.90
2018-12-09T14:40:38.300Z,14.63
2018-12-09T14:43:06.536Z,15.37
2018-12-09T14:45:34.791Z,14.87
2018-12-09T14:48:03.194Z,14.87
2018-12-09T14:50:31.815Z,15.27
2018-12-09T14:53:00.134Z,15.30
2018-12-09T14:55:28.497Z,15.43
2018-12-09T14:57:56.790Z,15.07
2018-12-09T15:00:25.175Z,15.43
2018-12-09T15:02:53.349Z,15.57
2018-12-09T15:05:21.697Z,15.27
2018-12-09T15:07:50.170Z,15.20
2018-12-09T15:10:18.527Z,15.47
2018-12-09T15:12:47.111Z,15.97
2018-12-09T15:15:15.473Z,15.70
2018-12-09T15:17:43.981Z,16.00
2018-12-09T15:20:12.489Z,15.57
2018-12-09T15:22:41.390Z,16.37
2018-12-09T15:25:10.250Z,15.60
2018-12-09T15:27:38.764Z,15.50
2018-12-09T15:30:08.381Z,16.13
2018-12-09T15:32:36.789Z,15.80
2018-12-09T15:35:05.781Z,15.10
2018-12-09T15:37:34.176Z,15.10
2018-12-09T15:40:02.469Z,15.17
2018-12-09T15:42:31.017Z,14.50
2018-12-09T15:44:59.329Z,14.30
2018-12-09T15:47:27.831Z,14.53
2018-12-09T15:49:56.212Z,14.17
2018-12-09T15:52:24.515Z,14.10
2018-12-09T15:54:52.826Z,14.20
2018-12-09T15:57:21.206Z,14.60
2018-12-09T15:59:49.677Z,14.20
2018-12-09T16:02:18.317Z,14.20
2018-12-09T16:04:46.649Z,14.07
2018-12-09T16:07:15.027Z,14.00
2018-12-09T16:09:43.419Z,14.20
2018-12-09T16:12:11.673Z,14.40
2018-12-09T16:14:39.972Z,14.77
2018-12-09T16:17:08.203Z,15.67
2018-12-09T16:19:36.372Z,15.00
2018-12-09T16:22:04.610Z,14.40
2018-12-09T16:24:32.927Z,14.60
2018-12-09T16:27:01.258Z,14.80
2018-12-09T16:29:29.560Z,14.80
2018-12-09T16:31:59.348Z,14.57
2018-12-09T16:34:27.589Z,14.50
2018-12-09T16:36:55.861Z,14.77
2018-12-09T16:39:24.003Z,14.63
2018-12-09T16:41:52.140Z,15.20
2018-12-09T16:44:20.451Z,15.10
2018-12-09T16:46:48.693Z,15.67
2018-12-09T16:49:17.213Z,14.90
2018-12-09T16:51:45.486Z,15.37
2018-12-09T16:54:13.939Z,15.67
2018-12-09T16:56:49.053Z,16.37
2018-12-09T16:59:17.555Z,15.50
2018-12-09T17:01:45.933Z,15.53
2018-12-09T17:04:14.298Z,15.83
2018-12-09T17:06:42.717Z,14.93
2018-12-09T17:09:12.008Z,15.87
2018-12-09T17:11:42.994Z,15.40
2018-12-09T17:14:11.869Z,15.70
2018-12-09T17:16:42.577Z,15.90
2018-12-09T17:19:11.975Z,15.80
2018-12-09T17:21:41.071Z,15.57
2018-12-09T17:24:11.186Z,14.80
2018-12-09T17:26:39.975Z,15.97
2018-12-09T17:29:08.864Z,15.70
2018-12-09T17:31:38.407Z,15.00
2018-12-09T17:34:07.854Z,14.83
2018-12-09T17:36:36.318Z,15.67
2018-12-09T17:39:06.747Z,15.17
2018-12-09T17:41:35.446Z,15.50
2018-12-09T17:44:03.839Z,14.63
2018-12-09T17:46:32.234Z,15.60
2018-12-09T17:49:00.838Z,14.97
2018-12-09T17:51:29.196Z,14.90
2018-12-09T17:53:57.419Z,14.83
2018-12-09T17:56:25.780Z,15.30
2018-12-09T17:58:55.412Z,15.30
2018-12-09T18:01:24.151Z,15.33
2018-12-09T18:03:52.286Z,14.83
2018-12-09T18:06:20.649Z,14.73
2018-12-09T18:08:49.046Z,14.00
2018-12-09T18:11:17.373Z,13.60
2018-12-09T18:13:45.580Z,14.33
2018-12-09T18:16:14.068Z,14.07
2018-12-09T18:18:42.390Z,13.70
2018-12-09T18:21:10.693Z,14.63
2018-12-09T18:23:39.118Z,13.93
2018-12-09T18:26:07.430Z,14.00
2018-12-09T18:28:35.783Z,14.27
2018-12-09T18:31:04.185Z,14.50
2018-12-09T18:33:32.427Z,14.60
2018-12-09T18:36:01.131Z,14.37
2018-12-09T18:38:29.351Z,14.30
2018-12-09T18:40:57.867Z,14.77
2018-12-09T18:43:26.169Z,15.03
2018-12-09T18:45:54.565Z,14.63
2018-12-09T18:48:22.751Z,15.57
2018-12-09T18:50:51.125Z,15.23
2018-12-09T18:53:19.655Z,14.87
2018-12-09T18:55:47.901Z,15.10
2018-12-09T18:58:16.485Z,14.50
2018-12-09T19:00:44.764Z,14.07
2018-12-09T19:03:13.083Z,14.47
2018-12-09T19:05:41.425Z,14.67
2018-12-09T19:08:09.781Z,14.80
2018-12-09T19:10:38.207Z,15.33
2018-12-09T19:13:06.547Z,14.50
2018-12-09T19:15:34.876Z,15.17
2018-12-09T19:18:03.175Z,13.13
2018-12-09T19:20:32.165Z,13.87
2018-12-09T19:23:00.448Z,13.80
2018-12-09T19:25:28.875Z,13.80
2018-12-09T19:27:57.228Z,13.70
2018-12-09T19:30:26.472Z,13.50
2018-12-09T19:32:54.971Z,13.83
2018-12-09T19:35:24.583Z,13.40
2018-12-09T19:37:52.983Z,13.30
2018-12-09T19:40:21.335Z,13.00
2018-12-09T19:42:51.150Z,12.93
2018-12-09T19:45:20.104Z,14.37
2018-12-09T19:47:48.427Z,13.17
2018-12-09T19:50:17.051Z,12.70
2018-12-09T19:52:45.831Z,12.60
2018-12-09T19:55:15.430Z,12.40
2018-12-09T19:57:45.864Z,12.20
2018-12-09T20:00:14.567Z,12.47
2018-12-09T20:02:43.122Z,12.10
2018-12-09T20:05:11.588Z,11.10
2018-12-09T20:07:40.093Z,10.87
2018-12-09T20:10:09.508Z,11.07
2018-12-09T20:12:38.055Z,11.83
2018-12-09T20:15:07.872Z,11.20
2018-12-09T20:17:36.273Z,11.77
2018-12-09T20:20:05.573Z,12.10
2018-12-09T20:22:34.053Z,12.07
2018-12-09T20:25:02.748Z,12.10
2018-12-09T20:27:31.492Z,12.03
2018-12-09T20:29:59.943Z,12.57
2018-12-09T20:32:35.033Z,11.80
2018-12-09T20:34:58.895Z,12.57
2018-12-09T20:37:27.162Z,12.87
2018-12-09T20:39:55.673Z,13.00
2018-12-09T20:42:24.014Z,13.00
2018-12-09T20:44:52.376Z,11.73
2018-12-09T20:47:20.731Z,11.70
2018-12-09T20:49:49.761Z,10.80
2018-12-09T20:52:18.210Z,11.00
2018-12-09T20:54:46.443Z,11.33
2018-12-09T20:57:14.754Z,11.03
2018-12-09T20:59:43.116Z,10.80
2018-12-09T21:02:11.517Z,10.23
2018-12-09T21:04:39.965Z,10.30
2018-12-09T21:07:08.422Z,10.00
2018-12-09T21:09:36.561Z,10.20
2018-12-09T21:12:04.762Z,11.17
2018-12-09T21:14:33.062Z,15.13
2018-12-09T21:17:01.416Z,14.00
2018-12-09T21:19:30.213Z,11.77
2018-12-09T21:21:58.803Z,10.67
2018-12-09T21:24:27.091Z,11.20
2018-12-09T21:26:55.495Z,12.20
2018-12-09T21:29:23.736Z,10.93
2018-12-09T21:31:52.130Z,10.53
2018-12-09T21:34:20.491Z,10.80
2018-12-09T21:36:48.827Z,10.60
2018-12-09T21:39:18.010Z,10.63
2018-12-09T21:41:46.319Z,11.40
2018-12-09T21:44:16.323Z,11.63
2018-12-09T21:46:44.828Z,11.18
2018-12-09T21:49:14.119Z,11.10
2018-12-09T21:51:42.463Z,12.43
2018-12-09T21:54:10.802Z,11.47
2018-12-09T21:56:39.167Z,12.57
2018-12-09T21:59:07.486Z,12.33
2018-12-09T22:01:35.846Z,12.43
2018-12-09T22:04:04.331Z,15.70
2018-12-09T22:06:32.775Z,12.60
2018-12-09T22:09:01.171Z,13.13
2018-12-09T22:11:29.545Z,13.73
2018-12-09T22:13:57.853Z,14.00
2018-12-09T22:16:26.464Z,13.70
2018-12-09T22:18:54.734Z,14.80
2018-12-09T22:21:24.114Z,14.50
2018-12-09T22:23:52.538Z,13.90
2018-12-09T22:26:21.102Z,15.13
2018-12-09T22:28:49.343Z,14.83
2018-12-09T22:31:17.781Z,14.60
2018-12-09T22:33:46.028Z,14.73
2018-12-09T22:36:14.368Z,14.33
2018-12-09T22:38:42.706Z,14.43
2018-12-09T22:41:13.735Z,14.20
2018-12-09T22:43:42.264Z,14.80
2018-12-09T22:46:10.430Z,13.20
2018-12-09T22:48:38.854Z,13.73
2018-12-09T22:51:07.154Z,14.53
2018-12-09T22:53:35.437Z,14.13
2018-12-09T22:56:03.837Z,14.07
2018-12-09T22:58:32.197Z,14.23
2018-12-09T23:01:06.003Z,13.30
2018-12-09T23:03:34.375Z,14.23
2018-12-09T23:06:02.707Z,13.40
2018-12-09T23:08:31.279Z,13.40
2018-12-09T23:10:59.672Z,14.50
2018-12-09T23:13:27.803Z,14.20
2018-12-09T23:15:56.146Z,14.60
2018-12-09T23:18:26.611Z,14.50
2018-12-09T23:20:54.939Z,14.93
2018-12-09T23:23:23.489Z,15.97
2018-12-09T23:25:51.763Z,14.73
2018-12-09T23:28:20.319Z,16.13
2018-12-09T23:30:48.645Z,13.93
2018-12-09T23:33:16.950Z,16.13
2018-12-09T23:35:45.704Z,16.20
2018-12-09T23:38:14.147Z,15.40
2018-12-09T23:40:42.525Z,15.73
2018-12-09T23:43:10.957Z,16.20
2018-12-09T23:45:39.178Z,15.10
2018-12-09T23:48:07.633Z,15.33
2018-12-09T23:50:35.954Z,14.83
2018-12-09T23:53:04.319Z,15.50
2018-12-09T23:55:32.568Z,14.20
2018-12-09T23:58:01.003Z,14.60
